Time;durP1;ratioP1;P1;durP2;ratioP2;P2;SDS_P1;SDS_P2;PMS_P1;PMS_P2;Temp;Humidity;BMP_temperature;BMP_pressure;BME280_temperature;BME280_humidity;BME280_pressure;Samples;Min_cycle;Max_cycle;Signal;HPM_P1;HPM_P2
2023/07/27 00:00:11;;;;;;;1.77;1.20;;;24.40;43.70;;;;;;4988490;28;20018;-62
2023/07/27 00:02:37;;;;;;;1.65;1.27;;;24.40;43.70;;;;;;4987330;28;20080;-60
2023/07/27 00:05:04;;;;;;;2.22;1.20;;;24.40;43.60;;;;;;4987417;28;20065;-61
2023/07/27 00:07:30;;;;;;;3.22;1.30;;;24.40;43.60;;;;;;4985248;28;20042;-61
2023/07/27 00:09:56;;;;;;;2.50;1.40;;;24.40;43.60;;;;;;4989609;28;20150;-63
2023/07/27 00:12:22;;;;;;;2.42;1.52;;;24.40;43.50;;;;;;4986963;28;20400;-62
2023/07/27 00:14:48;;;;;;;1.75;1.23;;;24.40;43.50;;;;;;4989122;28;20441;-60
2023/07/27 00:17:14;;;;;;;1.70;1.20;;;24.40;43.60;;;;;;4985144;28;20204;-61
2023/07/27 00:19:40;;;;;;;1.65;1.38;;;24.40;43.60;;;;;;4988870;28;20022;-60
2023/07/27 00:22:06;;;;;;;1.75;1.40;;;24.40;43.60;;;;;;4989839;28;20042;-59
2023/07/27 00:24:32;;;;;;;2.17;1.30;;;24.40;43.50;;;;;;4985472;28;20051;-60
2023/07/27 00:26:58;;;;;;;1.58;1.27;;;24.40;43.50;;;;;;4987220;28;20145;-62
2023/07/27 00:29:24;;;;;;;2.10;1.23;;;24.40;43.50;;;;;;4985755;28;20464;-62
2023/07/27 00:31:50;;;;;;;1.88;1.30;;;24.30;43.40;;;;;;4989435;28;20038;-60
2023/07/27 00:34:17;;;;;;;1.48;1.10;;;24.40;43.50;;;;;;4988962;28;20073;-60
2023/07/27 00:36:43;;;;;;;1.77;1.38;;;24.40;43.50;;;;;;4989401;28;20053;-60
2023/07/27 00:39:12;;;;;;;1.30;1.02;;;24.40;43.50;;;;;;4987296;28;20031;-60
2023/07/27 00:41:43;;;;;;;1.63;1.40;;;24.40;43.50;;;;;;4988785;28;20027;-60
2023/07/27 00:44:09;;;;;;;1.52;1.30;;;24.40;43.50;;;;;;4992446;28;20046;-61
2023/07/27 00:46:37;;;;;;;2.53;1.42;;;24.30;43.50;;;;;;4988768;28;20034;-61
2023/07/27 00:49:03;;;;;;;1.80;1.40;;;24.40;43.60;;;;;;4987380;28;20038;-60
2023/07/27 00:51:35;;;;;;;2.28;1.60;;;24.30;43.60;;;;;;4987016;28;20038;-60
2023/07/27 00:54:03;;;;;;;1.83;1.30;;;24.30;43.60;;;;;;4989283;28;20038;-61
2023/07/27 00:56:30;;;;;;;1.50;1.10;;;24.30;43.60;;;;;;4987423;28;20098;-61
2023/07/27 00:58:59;;;;;;;3.50;1.45;;;24.30;43.50;;;;;;4990295;28;20034;-60
2023/07/27 01:01:27;;;;;;;1.58;1.35;;;24.30;43.60;;;;;;4991565;28;20105;-59
2023/07/27 01:03:54;;;;;;;2.05;1.10;;;24.30;43.60;;;;;;4994139;28;20049;-62
2023/07/27 01:06:21;;;;;;;1.73;1.20;;;24.30;43.60;;;;;;4988009;28;20022;-60
2023/07/27 01:08:48;;;;;;;1.52;1.10;;;24.30;43.70;;;;;;4990363;28;20023;-61
2023/07/27 01:11:51;;;;;;;1.65;1.40;;;24.30;43.70;;;;;;5003351;28;20300;-62
2023/07/27 01:14:31;;;;;;;1.88;1.40;;;24.30;43.80;;;;;;4980171;28;20107;-62
2023/07/27 01:17:11;;;;;;;1.20;1.10;;;24.30;43.90;;;;;;4987943;28;20117;-63
2023/07/27 01:19:57;;;;;;;1.98;1.55;;;24.30;44.00;;;;;;4992762;28;21862;-62
2023/07/27 01:22:32;;;;;;;1.75;1.30;;;24.30;44.10;;;;;;4990542;28;20035;-62
2023/07/27 01:24:58;;;;;;;1.30;0.90;;;24.20;44.10;;;;;;4992987;28;20049;-61
2023/07/27 01:27:51;;;;;;;1.90;1.20;;;24.30;44.30;;;;;;4992121;28;20501;-60
2023/07/27 01:30:57;;;;;;;1.80;1.05;;;24.30;44.40;;;;;;4990631;28;20026;-63
2023/07/27 01:33:35;;;;;;;1.55;0.95;;;24.30;44.50;;;;;;4990048;28;20112;-60
2023/07/27 01:36:03;;;;;;;2.70;1.40;;;24.30;44.60;;;;;;4989206;28;20038;-60
2023/07/27 01:38:32;;;;;;;1.88;1.20;;;24.30;44.70;;;;;;4991877;28;20337;-60
2023/07/27 01:40:59;;;;;;;1.73;1.20;;;24.20;44.80;;;;;;4991674;28;20458;-61
2023/07/27 01:43:27;;;;;;;2.55;1.15;;;24.20;44.90;;;;;;4992247;28;20142;-60
2023/07/27 01:45:56;;;;;;;1.88;1.30;;;24.20;45.00;;;;;;4988867;28;20061;-59
2023/07/27 01:48:26;;;;;;;2.50;1.40;;;24.20;45.10;;;;;;5004748;28;20034;-61
2023/07/27 01:50:55;;;;;;;1.77;1.10;;;24.20;45.20;;;;;;4989325;28;20022;-60
2023/07/27 01:53:22;;;;;;;1.63;1.23;;;24.20;45.30;;;;;;4992118;28;20330;-60
2023/07/27 01:55:49;;;;;;;2.95;1.23;;;24.20;45.30;;;;;;4996269;28;20030;-60
2023/07/27 01:58:16;;;;;;;2.25;1.40;;;24.20;45.40;;;;;;4992788;28;20045;-61
2023/07/27 02:00:42;;;;;;;1.48;1.20;;;24.20;45.50;;;;;;4992060;28;20088;-61
2023/07/27 02:03:10;;;;;;;1.60;1.30;;;24.20;45.60;;;;;;4987803;28;20026;-62
2023/07/27 02:05:36;;;;;;;1.80;1.25;;;24.20;45.70;;;;;;4988576;28;20049;-62
2023/07/27 02:08:02;;;;;;;1.88;1.27;;;24.20;45.80;;;;;;4987013;28;20026;-60
2023/07/27 02:10:30;;;;;;;1.65;1.20;;;24.20;45.80;;;;;;4987881;28;20046;-60
2023/07/27 02:13:14;;;;;;;1.25;1.00;;;24.20;45.90;;;;;;4990984;28;20038;-60
2023/07/27 02:15:46;;;;;;;1.10;1.00;;;24.20;46.00;;;;;;4990794;28;20116;-59
2023/07/27 02:18:19;;;;;;;2.13;1.27;;;24.20;46.10;;;;;;4984090;28;20144;-61
2023/07/27 02:20:46;;;;;;;1.50;1.20;;;24.20;46.20;;;;;;4991510;28;20053;-61
2023/07/27 02:23:14;;;;;;;1.30;1.20;;;24.20;46.30;;;;;;4990501;28;20480;-60
2023/07/27 02:25:41;;;;;;;1.10;0.90;;;24.20;46.30;;;;;;4989915;28;20046;-60
2023/07/27 02:28:13;;;;;;;1.00;0.90;;;24.20;46.40;;;;;;4973804;28;20035;-63
2023/07/27 02:30:39;;;;;;;1.73;1.23;;;24.20;46.50;;;;;;4985726;28;20402;-59
2023/07/27 02:33:05;;;;;;;1.90;1.17;;;24.20;46.60;;;;;;4998347;28;20030;-62
2023/07/27 02:35:31;;;;;;;2.17;1.38;;;24.20;46.70;;;;;;4989624;28;20034;-60
2023/07/27 02:37:57;;;;;;;1.55;1.13;;;24.20;46.70;;;;;;4988561;28;20111;-60
2023/07/27 02:40:25;;;;;;;1.25;0.98;;;24.20;46.80;;;;;;4991162;28;20018;-59
2023/07/27 02:42:52;;;;;;;1.13;1.02;;;24.10;46.80;;;;;;4989758;28;20022;-60
2023/07/27 02:45:18;;;;;;;1.25;1.10;;;24.10;46.90;;;;;;4989851;28;20049;-59
2023/07/27 02:47:44;;;;;;;1.50;1.10;;;24.10;47.00;;;;;;4988050;28;20060;-62
2023/07/27 02:50:10;;;;;;;1.40;1.20;;;24.10;47.00;;;;;;4990138;28;20045;-59
2023/07/27 02:52:52;;;;;;;1.55;1.10;;;24.10;47.10;;;;;;4988251;28;20019;-62
2023/07/27 02:55:18;;;;;;;1.80;1.20;;;24.10;47.20;;;;;;4988135;28;20337;-60
2023/07/27 02:57:44;;;;;;;1.20;1.10;;;24.10;47.20;;;;;;4989960;28;20109;-60
2023/07/27 03:00:10;;;;;;;1.20;0.93;;;24.10;47.30;;;;;;4990366;28;20134;-60
2023/07/27 03:02:36;;;;;;;1.77;1.10;;;24.10;47.40;;;;;;4990074;28;20113;-61
2023/07/27 03:05:05;;;;;;;2.08;1.20;;;24.10;48.10;;;;;;4983448;28;20133;-60
2023/07/27 03:07:31;;;;;;;1.98;1.58;;;24.10;47.50;;;;;;4985736;28;20052;-60
2023/07/27 03:09:57;;;;;;;2.00;1.33;;;24.10;47.50;;;;;;5003048;28;20032;-60
2023/07/27 03:12:23;;;;;;;2.38;1.40;;;24.10;47.60;;;;;;4990160;28;20022;-60
2023/07/27 03:14:49;;;;;;;1.55;1.25;;;24.10;47.70;;;;;;4987757;28;20705;-60
2023/07/27 03:17:15;;;;;;;1.20;1.00;;;24.10;47.70;;;;;;4991432;28;20026;-60
2023/07/27 03:19:41;;;;;;;2.78;1.92;;;24.10;48.40;;;;;;4993835;28;20026;-60
2023/07/27 03:22:07;;;;;;;1.88;1.25;;;24.10;47.80;;;;;;4971497;28;20053;-60
2023/07/27 03:24:33;;;;;;;2.95;1.30;;;24.10;47.90;;;;;;4986538;28;20409;-61
2023/07/27 03:26:59;;;;;;;1.92;1.40;;;24.10;47.90;;;;;;4990220;28;20027;-60
2023/07/27 03:29:25;;;;;;;1.98;1.42;;;24.10;47.90;;;;;;4988662;28;20030;-62
2023/07/27 03:31:51;;;;;;;2.83;1.52;;;24.10;47.90;;;;;;4989015;28;20033;-61
2023/07/27 03:34:17;;;;;;;2.15;1.48;;;24.10;47.90;;;;;;4988690;28;20034;-60
2023/07/27 03:36:43;;;;;;;2.80;1.60;;;24.10;48.00;;;;;;4984174;28;20093;-61
2023/07/27 03:39:09;;;;;;;1.77;1.38;;;24.10;48.10;;;;;;4986743;28;20034;-62
2023/07/27 03:41:35;;;;;;;2.05;1.42;;;24.00;48.10;;;;;;4990373;28;20030;-62
2023/07/27 03:44:00;;;;;;;1.80;1.50;;;24.10;48.20;;;;;;4988680;28;20155;-62
2023/07/27 03:46:26;;;;;;;2.08;1.40;;;24.10;48.30;;;;;;4987421;28;20038;-60
2023/07/27 03:48:53;;;;;;;2.45;1.58;;;24.00;48.20;;;;;;4986582;28;20042;-60
2023/07/27 03:51:19;;;;;;;2.38;1.50;;;24.00;48.30;;;;;;4987583;28;20061;-60
2023/07/27 03:53:45;;;;;;;2.60;1.50;;;24.00;48.30;;;;;;4989950;28;20041;-60
2023/07/27 03:56:11;;;;;;;1.98;1.67;;;24.00;48.40;;;;;;4989636;28;20420;-61
2023/07/27 03:58:38;;;;;;;2.20;1.50;;;24.00;48.40;;;;;;4987328;28;20104;-61
2023/07/27 04:01:04;;;;;;;1.77;1.20;;;24.00;48.50;;;;;;4989986;28;20100;-61
2023/07/27 04:03:30;;;;;;;2.40;1.40;;;24.00;48.50;;;;;;4986573;28;20144;-60
2023/07/27 04:05:56;;;;;;;2.10;1.65;;;24.00;48.50;;;;;;5000646;28;20150;-62
2023/07/27 04:08:22;;;;;;;2.55;1.60;;;24.00;48.60;;;;;;4986772;28;20089;-60
2023/07/27 04:10:49;;;;;;;1.55;1.30;;;24.00;48.80;;;;;;4942696;28;1205210;-61
2023/07/27 04:13:18;;;;;;;2.00;1.42;;;24.00;48.60;;;;;;4962668;28;20026;-61
2023/07/27 04:15:44;;;;;;;2.50;1.30;;;24.00;48.60;;;;;;4986817;28;20030;-60
2023/07/27 04:18:09;;;;;;;2.53;1.45;;;24.00;48.60;;;;;;4988043;28;20022;-59
2023/07/27 04:20:35;;;;;;;2.25;1.45;;;24.00;48.70;;;;;;4987017;28;20026;-60
2023/07/27 04:23:01;;;;;;;1.73;1.40;;;24.00;48.80;;;;;;4990675;28;20034;-62
2023/07/27 04:25:27;;;;;;;1.95;1.42;;;24.00;48.80;;;;;;4987576;28;20425;-60
2023/07/27 04:27:53;;;;;;;2.33;1.50;;;24.00;48.80;;;;;;4988013;28;20054;-61
2023/07/27 04:30:19;;;;;;;2.47;1.50;;;24.00;48.80;;;;;;4987321;28;20027;-62
2023/07/27 04:32:45;;;;;;;2.28;1.35;;;24.00;48.80;;;;;;4988729;28;20094;-61
2023/07/27 04:35:11;;;;;;;2.55;1.50;;;24.00;48.90;;;;;;4987053;28;20046;-61
2023/07/27 04:37:37;;;;;;;1.88;1.10;;;24.00;48.90;;;;;;4988126;28;20041;-62
2023/07/27 04:40:04;;;;;;;2.10;1.38;;;24.00;48.90;;;;;;4985689;28;20034;-60
2023/07/27 04:42:29;;;;;;;2.25;1.27;;;24.00;48.90;;;;;;4989260;28;20180;-61
2023/07/27 04:44:58;;;;;;;1.38;1.15;;;24.00;49.00;;;;;;4988280;28;20062;-60
2023/07/27 04:47:24;;;;;;;1.85;1.15;;;24.00;49.00;;;;;;4988771;28;20128;-61
2023/07/27 04:49:50;;;;;;;2.33;1.40;;;24.00;49.00;;;;;;4987174;28;20061;-60
2023/07/27 04:52:15;;;;;;;1.83;1.40;;;23.90;49.00;;;;;;4990170;28;20035;-62
2023/07/27 04:54:42;;;;;;;2.25;1.50;;;23.90;49.00;;;;;;4988358;28;20117;-61
2023/07/27 04:57:07;;;;;;;1.75;1.27;;;23.90;49.10;;;;;;4972126;28;20050;-62
2023/07/27 04:59:33;;;;;;;2.28;1.17;;;23.90;49.10;;;;;;4987066;28;20030;-61
2023/07/27 05:01:59;;;;;;;1.65;1.30;;;23.90;49.10;;;;;;4988420;28;20031;-60
2023/07/27 05:04:25;;;;;;;2.15;1.38;;;23.90;49.20;;;;;;4986692;28;20042;-61
2023/07/27 05:06:51;;;;;;;2.10;1.30;;;23.90;49.20;;;;;;4984002;28;20030;-63
2023/07/27 05:09:17;;;;;;;2.03;1.20;;;23.90;49.20;;;;;;4988929;28;20040;-60
2023/07/27 05:11:43;;;;;;;1.75;1.10;;;23.90;49.30;;;;;;4982739;28;20077;-61
2023/07/27 05:14:08;;;;;;;1.80;1.17;;;24.00;49.30;;;;;;4989554;28;20027;-62
2023/07/27 05:16:34;;;;;;;2.28;1.55;;;23.90;49.90;;;;;;4988446;28;20052;-60
2023/07/27 05:19:00;;;;;;;1.48;1.23;;;23.90;49.40;;;;;;4988905;28;20071;-59
2023/07/27 05:21:26;;;;;;;1.73;1.35;;;23.90;49.40;;;;;;4989105;28;20102;-62
2023/07/27 05:23:52;;;;;;;1.98;1.52;;;23.90;49.40;;;;;;4986713;28;20445;-61
2023/07/27 05:26:18;;;;;;;2.05;1.33;;;23.90;49.50;;;;;;4984995;28;20046;-62
2023/07/27 05:28:45;;;;;;;2.08;1.48;;;23.90;49.50;;;;;;4985730;28;20030;-62
2023/07/27 05:31:11;;;;;;;1.55;1.27;;;23.90;49.50;;;;;;4987814;28;20042;-59
2023/07/27 05:33:37;;;;;;;1.85;1.20;;;23.90;49.60;;;;;;4987769;28;20457;-62
2023/07/27 05:36:03;;;;;;;1.48;1.20;;;23.90;50.20;;;;;;4986406;28;20065;-61
2023/07/27 05:38:29;;;;;;;1.85;1.33;;;23.90;49.60;;;;;;4983188;28;20317;-59
2023/07/27 05:41:00;;;;;;;2.47;1.27;;;23.90;49.70;;;;;;4987035;28;20109;-62
2023/07/27 05:43:26;;;;;;;3.28;1.10;;;23.90;49.70;;;;;;4987680;28;20023;-62
2023/07/27 05:45:52;;;;;;;2.00;1.30;;;23.90;49.70;;;;;;4988175;28;20053;-62
2023/07/27 05:48:17;;;;;;;4.38;1.35;;;23.90;49.80;;;;;;4986848;28;20026;-60
2023/07/27 05:50:43;;;;;;;2.60;1.25;;;23.90;49.80;;;;;;4988934;28;20114;-60
2023/07/27 05:53:09;;;;;;;3.05;1.38;;;23.90;49.90;;;;;;4990870;28;20288;-60
2023/07/27 05:55:35;;;;;;;1.88;1.05;;;23.90;50.00;;;;;;4990488;28;20034;-62
2023/07/27 05:58:01;;;;;;;2.33;1.10;;;23.90;50.00;;;;;;4986821;28;20102;-60
2023/07/27 06:00:27;;;;;;;1.98;1.45;;;23.90;50.10;;;;;;4989470;28;20037;-62
2023/07/27 06:02:56;;;;;;;2.67;1.30;;;23.90;50.20;;;;;;4989007;28;20030;-60
2023/07/27 06:05:22;;;;;;;2.15;1.00;;;23.90;50.20;;;;;;4986245;28;20117;-61
2023/07/27 06:07:47;;;;;;;1.20;1.00;;;23.90;50.30;;;;;;4985663;28;20084;-61
2023/07/27 06:10:13;;;;;;;1.58;1.08;;;23.80;50.30;;;;;;4986791;28;20114;-62
2023/07/27 06:12:39;;;;;;;1.20;0.80;;;23.90;50.40;;;;;;4989641;28;20030;-60
2023/07/27 06:15:06;;;;;;;1.88;1.20;;;23.90;51.00;;;;;;4987635;28;20019;-60
2023/07/27 06:17:32;;;;;;;1.73;1.00;;;23.90;50.40;;;;;;4990053;28;20033;-61
2023/07/27 06:19:58;;;;;;;1.20;0.90;;;23.90;50.40;;;;;;4989920;28;20026;-61
2023/07/27 06:22:23;;;;;;;2.33;1.20;;;23.90;50.50;;;;;;4986188;28;20054;-61
2023/07/27 06:24:49;;;;;;;2.42;1.10;;;23.90;50.60;;;;;;4986424;28;20469;-59
2023/07/27 06:27:15;;;;;;;0.98;0.77;;;23.90;50.60;;;;;;4985283;28;20406;-60
2023/07/27 06:29:41;;;;;;;3.88;1.05;;;23.90;50.70;;;;;;4989667;28;20036;-61
2023/07/27 06:32:07;;;;;;;1.95;0.95;;;23.90;50.80;;;;;;4982860;28;20109;-62
2023/07/27 06:34:33;;;;;;;2.10;1.08;;;23.90;50.90;;;;;;4989114;28;20031;-61
2023/07/27 06:36:59;;;;;;;0.98;0.80;;;23.90;50.90;;;;;;4990187;28;20044;-61
2023/07/27 06:39:25;;;;;;;1.13;0.75;;;23.90;51.00;;;;;;4989869;28;20134;-62
2023/07/27 06:41:51;;;;;;;0.80;0.80;;;23.90;51.00;;;;;;5003025;28;20129;-63
2023/07/27 06:44:26;;;;;;;1.13;0.77;;;23.90;51.10;;;;;;4987783;28;20046;-62
2023/07/27 06:46:52;;;;;;;1.25;1.05;;;23.90;51.10;;;;;;4975886;28;20357;-62
2023/07/27 06:49:18;;;;;;;1.80;0.75;;;23.90;51.10;;;;;;4993070;28;20030;-62
2023/07/27 06:51:44;;;;;;;1.30;1.05;;;23.90;51.20;;;;;;4991910;28;20643;-61
2023/07/27 06:54:10;;;;;;;1.02;0.73;;;23.80;51.20;;;;;;4992071;28;20433;-62
2023/07/27 06:56:36;;;;;;;1.05;0.68;;;23.90;51.30;;;;;;4983004;28;20025;-61
2023/07/27 06:59:01;;;;;;;1.05;0.80;;;23.90;51.30;;;;;;5012507;28;20100;-60
2023/07/27 07:01:27;;;;;;;1.55;0.73;;;23.90;51.30;;;;;;4992682;28;20485;-60
2023/07/27 07:03:53;;;;;;;0.82;0.73;;;23.90;51.30;;;;;;4993024;28;20049;-60
2023/07/27 07:06:19;;;;;;;0.93;0.63;;;23.90;51.40;;;;;;4990085;28;20137;-62
2023/07/27 07:08:45;;;;;;;1.42;0.70;;;23.90;51.40;;;;;;4989311;28;20027;-60
2023/07/27 07:11:11;;;;;;;0.70;0.70;;;23.90;51.40;;;;;;4991339;28;20377;-60
2023/07/27 07:13:37;;;;;;;0.82;0.75;;;23.90;51.50;;;;;;4990672;28;20033;-60
2023/07/27 07:16:03;;;;;;;1.25;0.60;;;23.90;51.50;;;;;;4999223;28;20022;-61
2023/07/27 07:18:29;;;;;;;0.60;0.60;;;23.90;51.50;;;;;;4988539;28;20054;-62
2023/07/27 07:20:54;;;;;;;0.75;0.68;;;23.90;51.60;;;;;;4991985;28;20390;-61
2023/07/27 07:23:22;;;;;;;0.63;0.60;;;23.90;51.60;;;;;;4991288;28;20037;-62
2023/07/27 07:25:48;;;;;;;0.75;0.60;;;23.90;51.70;;;;;;5000526;28;20038;-65
2023/07/27 07:28:14;;;;;;;0.98;0.77;;;23.90;51.80;;;;;;4993573;28;20045;-59
2023/07/27 07:30:41;;;;;;;0.70;0.60;;;23.90;51.80;;;;;;4992971;28;20112;-61
2023/07/27 07:33:08;;;;;;;0.98;0.40;;;23.90;51.90;;;;;;4989233;28;20092;-62
2023/07/27 07:35:39;;;;;;;0.65;0.55;;;23.90;51.90;;;;;;4993163;28;20106;-62
2023/07/27 07:38:08;;;;;;;1.10;0.73;;;23.90;52.00;;;;;;4993065;28;20042;-61
2023/07/27 07:40:34;;;;;;;0.93;0.65;;;23.90;52.00;;;;;;4991269;28;20432;-60
2023/07/27 07:43:00;;;;;;;0.60;0.50;;;23.90;52.00;;;;;;4990926;28;20113;-60
2023/07/27 07:45:26;;;;;;;0.50;0.50;;;23.90;52.10;;;;;;4975851;28;20065;-61
2023/07/27 07:47:52;;;;;;;0.63;0.45;;;23.90;52.20;;;;;;4975788;28;20122;-59
2023/07/27 07:50:18;;;;;;;0.50;0.50;;;23.90;52.20;;;;;;4991911;28;20419;-61
2023/07/27 07:52:45;;;;;;;0.80;0.50;;;24.00;52.30;;;;;;4989586;28;20046;-60
2023/07/27 07:55:10;;;;;;;0.68;0.50;;;23.90;52.30;;;;;;4982479;28;20055;-60
2023/07/27 07:57:36;;;;;;;0.60;0.50;;;24.00;52.40;;;;;;4991816;28;20034;-61
2023/07/27 08:00:03;;;;;;;0.47;0.40;;;24.00;52.40;;;;;;4992592;28;20040;-60
2023/07/27 08:02:40;;;;;;;0.70;0.50;;;24.00;52.50;;;;;;4990784;28;20034;-61
2023/07/27 08:05:06;;;;;;;1.70;0.50;;;24.00;52.50;;;;;;4992212;28;20100;-60
2023/07/27 08:07:32;;;;;;;0.45;0.40;;;24.00;52.60;;;;;;4988724;28;20108;-60
2023/07/27 08:09:59;;;;;;;0.77;0.63;;;23.90;52.60;;;;;;4991583;28;20417;-62
2023/07/27 08:12:25;;;;;;;0.85;0.65;;;24.00;52.70;;;;;;4986190;28;20048;-61
2023/07/27 08:14:51;;;;;;;0.68;0.50;;;24.00;52.80;;;;;;4988212;28;20034;-60
2023/07/27 08:17:17;;;;;;;0.95;0.60;;;24.00;52.80;;;;;;4982301;28;20610;-62
2023/07/27 08:19:43;;;;;;;0.30;0.30;;;24.00;52.90;;;;;;4986981;28;20030;-62
2023/07/27 08:22:10;;;;;;;0.50;0.50;;;24.00;52.90;;;;;;4989788;28;20048;-62
2023/07/27 08:24:37;;;;;;;0.40;0.40;;;24.00;52.90;;;;;;4991075;28;20049;-65
2023/07/27 08:27:05;;;;;;;0.50;0.50;;;24.00;53.00;;;;;;4986630;28;20342;-63
2023/07/27 08:29:31;;;;;;;0.73;0.50;;;24.00;53.00;;;;;;4991591;28;20070;-62
2023/07/27 08:31:57;;;;;;;0.50;0.30;;;24.00;53.10;;;;;;4987499;28;20061;-62
2023/07/27 08:34:23;;;;;;;0.60;0.40;;;24.00;53.10;;;;;;4984517;28;20070;-62
2023/07/27 08:36:50;;;;;;;0.45;0.45;;;24.00;53.20;;;;;;4987605;28;20046;-63
2023/07/27 08:39:16;;;;;;;0.70;0.40;;;24.00;53.20;;;;;;4986253;28;20030;-62
2023/07/27 08:41:42;;;;;;;0.85;0.40;;;24.00;53.30;;;;;;4988527;28;20034;-63
2023/07/27 08:44:08;;;;;;;0.52;0.43;;;24.00;53.30;;;;;;4989284;28;20132;-61
2023/07/27 08:46:35;;;;;;;0.50;0.43;;;24.00;53.40;;;;;;4988330;28;20073;-62
2023/07/27 08:49:03;;;;;;;0.88;0.50;;;24.00;53.40;;;;;;4988104;28;21841;-62
2023/07/27 08:51:34;;;;;;;1.58;0.43;;;24.10;53.50;;;;;;4988964;28;20122;-61
2023/07/27 08:54:00;;;;;;;0.40;0.38;;;24.10;53.90;;;;;;4989168;28;20092;-62
2023/07/27 08:56:26;;;;;;;0.55;0.43;;;24.10;53.60;;;;;;4988059;28;20401;-61
2023/07/27 08:58:52;;;;;;;0.45;0.45;;;24.00;53.60;;;;;;4988368;28;20038;-63
2023/07/27 09:01:19;;;;;;;1.23;0.50;;;24.10;53.70;;;;;;4985930;28;20034;-62
2023/07/27 09:03:46;;;;;;;0.30;0.30;;;24.10;53.80;;;;;;4988384;28;20057;-63
2023/07/27 09:06:12;;;;;;;0.50;0.43;;;24.10;53.80;;;;;;4987365;28;20042;-60
2023/07/27 09:08:37;;;;;;;0.30;0.30;;;24.10;53.90;;;;;;4989269;28;20034;-61
2023/07/27 09:11:05;;;;;;;0.75;0.57;;;24.10;53.90;;;;;;4988087;28;20402;-63
2023/07/27 09:13:31;;;;;;;0.82;0.47;;;24.10;53.90;;;;;;4988456;28;20127;-60
2023/07/27 09:15:57;;;;;;;3.70;0.40;;;24.10;54.00;;;;;;4987453;28;20501;-61
2023/07/27 09:18:24;;;;;;;0.70;0.40;;;24.10;54.10;;;;;;4986009;28;20026;-63
2023/07/27 09:20:49;;;;;;;0.65;0.40;;;24.10;54.10;;;;;;4990656;28;20038;-61
2023/07/27 09:23:19;;;;;;;0.40;0.40;;;24.10;54.10;;;;;;4991384;28;20063;-62
2023/07/27 09:25:53;;;;;;;0.30;0.30;;;24.10;54.20;;;;;;4992646;28;20038;-63
2023/07/27 09:28:27;;;;;;;0.73;0.40;;;24.10;54.20;;;;;;4993630;28;20030;-62
2023/07/27 09:31:02;;;;;;;0.60;0.50;;;24.10;54.30;;;;;;4992575;28;20037;-63
2023/07/27 09:33:29;;;;;;;0.40;0.40;;;24.10;54.30;;;;;;4989893;28;20054;-62
2023/07/27 09:35:58;;;;;;;0.70;0.47;;;24.10;54.30;;;;;;4990093;28;20038;-61
2023/07/27 09:38:25;;;;;;;0.50;0.40;;;24.10;54.40;;;;;;4990664;28;20045;-63
2023/07/27 09:40:51;;;;;;;0.63;0.30;;;24.10;54.50;;;;;;4988287;28;20069;-62
2023/07/27 09:43:17;;;;;;;0.40;0.40;;;24.10;54.50;;;;;;4991574;28;20035;-62
2023/07/27 09:45:43;;;;;;;0.50;0.43;;;24.10;54.60;;;;;;4991011;28;20116;-61
2023/07/27 09:48:10;;;;;;;0.30;0.30;;;24.10;54.60;;;;;;4990479;28;20060;-60
2023/07/27 09:50:36;;;;;;;0.73;0.40;;;24.10;54.60;;;;;;4991307;28;20034;-61
2023/07/27 09:53:03;;;;;;;0.73;0.40;;;24.10;54.60;;;;;;4991646;28;20033;-62
2023/07/27 09:55:32;;;;;;;0.88;0.50;;;24.20;54.70;;;;;;4992385;28;20435;-63
2023/07/27 09:58:01;;;;;;;0.50;0.40;;;24.10;54.70;;;;;;4991394;28;20030;-62
2023/07/27 10:00:27;;;;;;;0.43;0.40;;;24.20;54.80;;;;;;4991754;28;20043;-61
2023/07/27 10:02:53;;;;;;;0.52;0.47;;;24.20;54.70;;;;;;4991031;28;20031;-64
2023/07/27 10:05:19;;;;;;;1.05;0.60;;;24.20;54.70;;;;;;4989796;28;20337;-63
2023/07/27 10:07:46;;;;;;;1.33;0.60;;;24.20;54.70;;;;;;4990512;28;20349;-61
2023/07/27 10:10:36;;;;;;;2.80;0.52;;;24.20;54.80;;;;;;4991536;28;20189;-60
2023/07/27 10:13:09;;;;;;;1.70;0.70;;;24.20;54.90;;;;;;4990860;28;20030;-61
2023/07/27 10:15:43;;;;;;;0.60;0.32;;;24.20;54.90;;;;;;4990566;28;20122;-61
2023/07/27 10:18:13;;;;;;;1.10;0.60;;;24.20;55.00;;;;;;4991695;28;20078;-62
2023/07/27 10:20:39;;;;;;;0.63;0.50;;;24.20;55.00;;;;;;4989041;28;20489;-60
2023/07/27 10:23:20;;;;;;;0.75;0.60;;;24.20;55.10;;;;;;4989191;28;20105;-62
2023/07/27 10:25:55;;;;;;;0.57;0.50;;;24.20;55.10;;;;;;4989707;28;20030;-61
2023/07/27 10:28:43;;;;;;;0.60;0.50;;;24.30;55.20;;;;;;4988278;28;20397;-61
2023/07/27 10:31:25;;;;;;;0.90;0.50;;;24.20;55.20;;;;;;4987944;28;20485;-61
2023/07/27 10:33:55;;;;;;;0.65;0.40;;;24.20;55.20;;;;;;4991058;28;20029;-62
2023/07/27 10:36:23;;;;;;;0.90;0.57;;;24.30;55.30;;;;;;4992998;28;20330;-62
2023/07/27 10:38:53;;;;;;;1.08;0.43;;;24.30;55.40;;;;;;4991378;28;20030;-61
2023/07/27 10:41:21;;;;;;;0.60;0.47;;;24.30;55.40;;;;;;4984899;28;20041;-62
2023/07/27 10:44:09;;;;;;;0.68;0.35;;;24.30;55.40;;;;;;4993806;28;20390;-62
2023/07/27 10:46:38;;;;;;;0.85;0.40;;;24.30;55.50;;;;;;4990956;28;20087;-61
2023/07/27 10:49:15;;;;;;;0.40;0.40;;;24.30;55.50;;;;;;4990025;28;20053;-62
2023/07/27 10:51:46;;;;;;;0.90;0.43;;;24.30;55.50;;;;;;4992631;28;20341;-61
2023/07/27 10:54:13;;;;;;;0.50;0.50;;;24.30;55.60;;;;;;4990720;28;20417;-61
2023/07/27 10:56:40;;;;;;;0.50;0.50;;;24.30;55.60;;;;;;4993321;28;20041;-63
2023/07/27 10:59:11;;;;;;;0.60;0.57;;;24.30;55.70;;;;;;4993539;28;20038;-61
2023/07/27 11:01:37;;;;;;;0.45;0.45;;;24.30;55.70;;;;;;4991107;28;20042;-61
2023/07/27 11:04:04;;;;;;;0.70;0.40;;;24.30;55.80;;;;;;4990084;28;20353;-61
2023/07/27 11:06:30;;;;;;;0.43;0.43;;;24.30;55.80;;;;;;4990233;28;20042;-60
2023/07/27 11:08:56;;;;;;;0.85;0.50;;;24.30;56.00;;;;;;4985828;28;20022;-63
2023/07/27 11:11:27;;;;;;;0.95;0.40;;;24.40;56.10;;;;;;4992381;28;20125;-63
2023/07/27 11:13:53;;;;;;;2.35;0.60;;;24.40;56.10;;;;;;4992981;28;20034;-61
2023/07/27 11:16:19;;;;;;;0.68;0.50;;;24.40;56.20;;;;;;4991737;28;20419;-63
2023/07/27 11:18:45;;;;;;;0.63;0.50;;;24.40;56.30;;;;;;4992100;28;20031;-63
2023/07/27 11:21:11;;;;;;;0.90;0.40;;;24.40;56.30;;;;;;4988137;28;20153;-61
2023/07/27 11:23:57;;;;;;;0.40;0.40;;;24.50;56.30;;;;;;4991752;28;20038;-62
2023/07/27 11:26:26;;;;;;;0.50;0.50;;;24.60;56.30;;;;;;4991046;28;20108;-60
2023/07/27 11:28:54;;;;;;;0.40;0.40;;;24.60;56.10;;;;;;4990459;28;20278;-61
2023/07/27 11:31:20;;;;;;;0.55;0.55;;;24.60;56.00;;;;;;4990908;28;20031;-61
2023/07/27 11:33:47;;;;;;;0.52;0.52;;;24.70;56.00;;;;;;4992864;28;20026;-60
2023/07/27 11:36:13;;;;;;;1.10;0.50;;;24.70;55.90;;;;;;4991244;28;20037;-60
2023/07/27 11:38:38;;;;;;;0.75;0.50;;;24.80;55.90;;;;;;4991217;28;20101;-60
2023/07/27 11:41:06;;;;;;;2.05;0.50;;;24.80;55.90;;;;;;4989266;28;20034;-61
2023/07/27 11:43:33;;;;;;;0.50;0.50;;;24.80;55.90;;;;;;4987174;28;20072;-59
2023/07/27 11:46:00;;;;;;;0.40;0.40;;;24.80;55.80;;;;;;4987693;28;20050;-61
2023/07/27 11:48:29;;;;;;;0.68;0.50;;;24.80;55.80;;;;;;4984739;28;20033;-61
2023/07/27 11:50:58;;;;;;;0.40;0.40;;;24.90;55.80;;;;;;4990277;28;20038;-60
2023/07/27 11:53:28;;;;;;;0.55;0.40;;;24.80;55.80;;;;;;4987928;28;20497;-59
2023/07/27 11:55:57;;;;;;;0.40;0.38;;;24.80;55.80;;;;;;4985821;28;20049;-59
2023/07/27 11:58:26;;;;;;;1.45;0.50;;;24.80;55.80;;;;;;4990001;28;20122;-60
2023/07/27 12:00:55;;;;;;;0.55;0.50;;;24.80;55.80;;;;;;4992014;28;20030;-60
2023/07/27 12:03:24;;;;;;;2.08;0.60;;;24.80;55.80;;;;;;4991490;28;20036;-61
2023/07/27 12:05:54;;;;;;;0.80;0.50;;;24.80;55.80;;;;;;4992319;28;20084;-62
2023/07/27 12:08:20;;;;;;;0.40;0.40;;;24.80;55.90;;;;;;4989566;28;20026;-61
2023/07/27 12:10:57;;;;;;;0.40;0.40;;;24.80;55.90;;;;;;4991866;28;20116;-61
2023/07/27 12:13:24;;;;;;;0.82;0.50;;;24.80;55.90;;;;;;4992787;28;20125;-61
2023/07/27 12:16:07;;;;;;;2.45;0.50;;;24.80;56.00;;;;;;4990542;28;20030;-60
2023/07/27 12:18:34;;;;;;;0.70;0.50;;;24.80;56.00;;;;;;4986980;28;20030;-62
2023/07/27 12:21:00;;;;;;;1.52;0.82;;;24.80;56.10;;;;;;4992396;28;20082;-63
2023/07/27 12:23:26;;;;;;;1.63;1.00;;;24.80;56.40;;;;;;4988306;28;20030;-62
2023/07/27 12:25:53;;;;;;;1.25;0.75;;;24.80;56.70;;;;;;4991526;28;20042;-60
2023/07/27 12:28:19;;;;;;;1.30;1.20;;;24.80;56.90;;;;;;4990380;28;20100;-62
2023/07/27 12:30:45;;;;;;;5.25;3.80;;;24.70;57.10;;;;;;4987607;28;20057;-61
2023/07/27 12:33:12;;;;;;;5.28;3.20;;;24.70;57.20;;;;;;4991656;28;20034;-60
2023/07/27 12:35:38;;;;;;;3.88;2.50;;;24.70;57.40;;;;;;4992061;28;20105;-60
2023/07/27 12:38:04;;;;;;;3.53;2.28;;;24.70;57.50;;;;;;4989980;28;20061;-60
2023/07/27 12:40:31;;;;;;;2.70;1.55;;;24.70;57.60;;;;;;4987438;28;20026;-60
2023/07/27 12:42:58;;;;;;;2.13;1.30;;;24.70;57.70;;;;;;4990745;28;20093;-61
2023/07/27 12:45:26;;;;;;;1.25;0.90;;;24.70;57.70;;;;;;4990925;28;20054;-60
2023/07/27 12:47:53;;;;;;;1.10;0.70;;;24.70;57.80;;;;;;4992195;28;20031;-60
2023/07/27 12:50:19;;;;;;;0.93;0.65;;;24.70;57.90;;;;;;4990070;28;20045;-60